VIJP/JAI METAR and TAF weather

Enter ICAO airport designator
Station Type Date Time Source
VIJP METAR 2019/08/25 13:30 UTC NOAA

VIJP 251330Z 05012KT 3000 HZ SCT025 FEW030CB OVC090 26/23 Q1004 TEMPO 1500 TSRA


Station Type Date Time Source
VIJP Decoded METAR 2019/08/25 13:30 UTC NOAA

Station name not available
Aug 25, 2019 - 09:30 AM EDT / 2019.08.25 1330 UTC
Wind: from the NE (050 degrees) at 14 MPH (12 KT):0
Visibility: 1 mile(s):0
Sky conditions: overcast
Weather: haze; Cumulonimbus clouds observed
Temperature: 78 F (26 C)
Dew Point: 73 F (23 C)
Relative Humidity: 83%
Pressure (altimeter): 29.65 in. Hg (1004 hPa)
ob: VIJP 251330Z 05012KT 3000 HZ SCT025 FEW030CB OVC090 26/23 Q1004 TEMPO 1500 TSRA
cycle: 13

Station Type Date Time Source
VIJP TAF 2019/08/25 12:00 UTC NOAA

TAF VIJP 251100Z 2512/2618 13005KT 4000 HZ SCT030 BKN100
BECMG 2513/2515 VRB03KT 3000 HZ
BECMG 2604/2606 12006KT 4000 HZ
TEMPO 2608/2614 1500 TSRA FEW035CB OVC090
BECMG 2613/2614 VRB03KT 3000 HZ SCT030 BKN090

Example: see airport list